»·PEaware :: N3141P KAPA-KGJT

N3141P :: KAPA-KGJT

FLIGHT INFORMATION

Flight Status: Arrived
Operator: Privately registered:
United States
More flights under this callsign
Pilot: Andrew N. (12823)
Aircraft: ECLIPSE 500
(EA50)
More flights by this aircraft type
Origin: KAPA Centennial
United States
Destination: KGJT Walker
United States
More flights between these airports :: More routes between these airports
Route: CONNR4 DBL V134 JNC
File this flight plan on PilotEdge
Remarks:
Altitude:
(Current/Filed)
20,000ft
Speed:
(Current/Filed)
300kts
Departed: 01-Nov-17 07:32 AM
Arrived: 01-Nov-17 08:41 AM
Distance/Time
Traveled:
173nm/1:08
Distance/Time
To Go:
Arrived

Flight Plot

Page will automatically refresh every two minutes.

Flight plan parsing failed; only flown route is shown


Map Options




Map Legend


Flown Route
Filed Route
Departure Airport
Arrival Airport
Navaid (VOR, NDB)
Fix

Horizontal Profiles

Position Reports

Time Latitude Longitude Heading Altitude Ground
Speed
01-Nov-17 07:23 39.570718 -104.848007 89 5827ft 0kts
01-Nov-17 07:24 39.570718 -104.848007 89 5827ft 0kts
01-Nov-17 07:25 39.570718 -104.848007 89 5827ft 0kts
01-Nov-17 07:26 39.570718 -104.848007 89 5827ft 0kts
01-Nov-17 07:27 39.570718 -104.848007 89 5827ft 0kts
01-Nov-17 07:28 39.570718 -104.848007 89 5827ft 0kts
01-Nov-17 07:29 39.570718 -104.848007 89 5827ft 0kts
01-Nov-17 07:30 39.570718 -104.848007 89 5827ft 0kts
01-Nov-17 07:31 39.570876 -104.847618 307 5825ft 3kts
01-Nov-17 07:32 39.571204 -104.848613 284 5827ft 7kts
01-Nov-17 07:33 39.569985 -104.849396 178 5835ft 15kts
01-Nov-17 07:34 39.564994 -104.849172 181 5858ft 17kts
01-Nov-17 07:35 39.559006 -104.848897 181 5862ft 19kts
01-Nov-17 07:36 39.556867 -104.848896 222 5866ft 9kts
01-Nov-17 07:37 39.560576 -104.850375 358 5853ft 84kts
01-Nov-17 07:38 39.594813 -104.851071 23 6677ft 153kts
01-Nov-17 07:39 39.577577 -104.830275 168 7143ft 145kts
01-Nov-17 07:40 39.538896 -104.822517 163 7112ft 142kts
01-Nov-17 07:41 39.531323 -104.842563 325 6525ft 131kts
01-Nov-17 07:42 39.559330 -104.850360 2 5863ft 116kts
01-Nov-17 07:43 39.574028 -104.849600 358 5820ft 18kts
01-Nov-17 07:44 39.577516 -104.849760 359 5814ft 23kts
01-Nov-17 07:45 39.579030 -104.848402 97 5802ft 0kts
01-Nov-17 07:51 39.568202 -104.848097 0 5843ft 0kts
01-Nov-17 07:52 39.568487 -104.848487 309 5842ft 4kts
01-Nov-17 07:53 39.563220 -104.849090 176 5856ft 55kts
01-Nov-17 07:54 39.556827 -104.849008 246 5866ft 0kts
01-Nov-17 07:55 39.558306 -104.850284 358 5858ft 43kts
01-Nov-17 07:56 39.587478 -104.854751 328 6553ft 173kts
01-Nov-17 07:57 39.608420 -104.899307 297 8337ft 208kts
01-Nov-17 07:58 39.628723 -104.950226 283 10436ft 215kts
01-Nov-17 07:59 39.632954 -105.000309 275 12121ft 219kts
01-Nov-17 08:00 39.639172 -105.066922 271 14324ft 221kts
01-Nov-17 08:01 39.645866 -105.134880 268 16797ft 204kts
01-Nov-17 08:02 39.652052 -105.199329 272 18892ft 197kts
01-Nov-17 08:03 39.658386 -105.263912 278 20607ft 199kts
01-Nov-17 08:04 39.665267 -105.331237 281 22083ft 206kts
01-Nov-17 08:05 39.672419 -105.400140 281 23408ft 210kts
01-Nov-17 08:06 39.680104 -105.475334 280 23694ft 246kts
01-Nov-17 08:07 39.688736 -105.561131 280 23692ft 273kts
01-Nov-17 08:08 39.697711 -105.653171 279 23727ft 286kts
01-Nov-17 08:09 39.689803 -105.744385 269 23827ft 299kts
01-Nov-17 08:10 39.679452 -105.842367 269 23904ft 297kts
01-Nov-17 08:11 39.668578 -105.941238 269 23914ft 301kts
01-Nov-17 08:12 39.657570 -106.040133 268 23910ft 304kts
01-Nov-17 08:13 39.646895 -106.134244 268 23910ft 305kts
01-Nov-17 08:14 39.635621 -106.234154 267 23909ft 304kts
01-Nov-17 08:15 39.619348 -106.332276 254 23908ft 309kts
01-Nov-17 08:16 39.590107 -106.426330 254 23926ft 307kts
01-Nov-17 08:17 39.560169 -106.520672 253 24006ft 310kts
01-Nov-17 08:18 39.529335 -106.617093 251 24015ft 322kts
01-Nov-17 08:19 39.499585 -106.709177 249 23998ft 329kts
01-Nov-17 08:20 39.467074 -106.808921 252 23997ft 323kts
01-Nov-17 08:21 39.437908 -106.905373 261 23996ft 310kts
01-Nov-17 08:22 39.418034 -107.007329 260 22878ft 332kts
01-Nov-17 08:23 39.397853 -107.111477 261 21092ft 334kts
01-Nov-17 08:24 39.377142 -107.218322 261 19361ft 330kts
01-Nov-17 08:25 39.356528 -107.325277 258 17906ft 330kts
01-Nov-17 08:26 39.320420 -107.427771 239 17537ft 333kts
01-Nov-17 08:27 39.276856 -107.519357 239 16117ft 316kts
01-Nov-17 08:28 39.240947 -107.616024 261 16096ft 321kts
01-Nov-17 08:29 39.224817 -107.721260 258 16013ft 338kts
01-Nov-17 08:30 39.207407 -107.836703 258 15757ft 346kts
01-Nov-17 08:31 39.189960 -107.952238 259 14660ft 341kts
01-Nov-17 08:32 39.173670 -108.059623 259 13997ft 329kts
01-Nov-17 08:33 39.155920 -108.174421 261 14099ft 333kts
01-Nov-17 08:34 39.138787 -108.287508 259 13634ft 328kts
01-Nov-17 08:35 39.121684 -108.398257 259 12996ft 319kts
01-Nov-17 08:36 39.105712 -108.500562 259 12035ft 293kts
01-Nov-17 08:37 39.090309 -108.598916 259 11074ft 289kts
01-Nov-17 08:38 39.075895 -108.690411 257 10163ft 284kts
01-Nov-17 08:39 39.074402 -108.777010 314 9995ft 249kts
01-Nov-17 08:40 39.138881 -108.789136 0 9796ft 246kts
01-Nov-17 08:41 39.198918 -108.759433 34 8717ft 239kts
01-Nov-17 08:42 39.209965 -108.690686 115 7073ft 228kts
01-Nov-17 08:43 39.179074 -108.624624 121 6076ft 224kts
01-Nov-17 08:44 39.150733 -108.572997 125 5476ft 134kts
01-Nov-17 08:45 39.133848 -108.542262 124 4809ft 84kts
01-Nov-17 08:46 39.126133 -108.530204 214 4836ft 14kts
01-Nov-17 08:47 39.124506 -108.531253 120 4825ft 0kts
01-Nov-17 08:48 39.124506 -108.531253 120 4825ft 0kts
01-Nov-17 08:49 39.124506 -108.531253 120 4825ft 0kts

Navigation Log

Ident Type
Flight plan parsing failed, navigation log unavailable